Hatley, WI (54440)

7:52 PM CST on December 04, 2016 (GMT -0600)
Hatley | | Change Station

Elev 1247 ft 44.80 °N, 89.37 °W | Updated 19 seconds ago

Overcast
Overcast
30.7 °F
Feels Like 31 °F
N
0.0
Wind Variable Wind from SSE
Gusts 0.0 mph

Today
High -- | Low -- °F
--% Chance of Precip.
Yesterday
High -- | Low -- °F
Precip. -- in
Pressure 29.75 in
Visibility 5.0 miles
Clouds Overcast 600 ft
Windchill 31 °F
Dew Point 28 °F
Humidity 88%
Rainfall 0.00 in
Snow Depth Not available.
7:18 AM 4:16 PM
Waxing Crescent, 27% visible
SPECI KAUW 050147Z AUTO 22006KT 5SM BR OVC006 M01/M02 A2975 RMK AO2 T10111017
Pressure 29.75 in
Visibility 5.0 miles
Clouds Overcast 600 ft
Windchill 31 °F
Dew Point 28 °F
Humidity 88%
Rainfall 0.00 in
Snow Depth Not available.
7:18 AM 4:16 PM
Waxing Crescent, 27% visible
SPECI KAUW 050147Z AUTO 22006KT 5SM BR OVC006 M01/M02 A2975 RMK AO2 T10111017

10-Day Weather Forecast

Almanac

Astronomy

Dec. 04, 2016 Rise Set
Actual Time
Civil Twilight
Nautical Twilight
Astronomical Twilight
Moon
Length of Visible Light
Length of Day
Tomorrow will be .
, % of the Moon is Illuminated

Today's Extremes

State Highs State Lows

Community

WunderPhotos

Upload Photos

1,955,744 photos uploaded!

WunderBlog® & News

Nearby

Air Quality

  Air Quality AQ Index Pollutant
Not available.

Snow Depth

Station Depth Elevation

Earthquake Activity

City Distance Mag. Time & Date
Minimum magnitude displayed is 2.5.

Coastal Water Temperatures

Place Temperature

Stations

Nearby Weather Stations

Station Location Temp. Windchill Dew Point Humidity Wind Precip. Elev Updated Type
                   

Watches & Warnings

There are currently no watches in effect.